Jamaica, New York
Current Conditions -  °F | °C
As of 10:51 PM on Wednesday 24 Dec 2014 (Local Time) from KJFK Reporting Station
Moderate Fog Moderate Fog  
Wind Chill: 52°   Ceiling: 100
Heat Index: 52°   Visibility: 0.25mi
Dew Point: 51°   Wind: 8mph
Humidity: 97%   Direction: 180°S
Pressure: 29.57"   Gusts: 18mph
Location:  40.69°N, 73.81°W
Report Text: KJFK 250351Z 18007G16KT 1/4SM R04R/2200V2600FT FG VV001 11/11 A2957 RMK AO2 SFC VIS 1/2 SLP012 T01110106
Loading
Personal Weather Stations






























Interactive Weather Map New forecast layout! Learn more

10-Day Weather Forecast

Advertisements
Track Severe Weather on mobile